sensor_id;sensor_type;location;lat;lon;timestamp;P1;durP1;ratioP1;P2;durP2;ratioP2
33022;SDS011;19390;51.460;5.710;2022-12-05T00:01:22;67.85;;;33.58;;
33022;SDS011;19390;51.460;5.710;2022-12-05T00:04:03;69.97;;;31.67;;
33022;SDS011;19390;51.460;5.710;2022-12-05T00:06:35;71.38;;;34.17;;
33022;SDS011;19390;51.460;5.710;2022-12-05T00:09:02;67.50;;;33.95;;
33022;SDS011;19390;51.460;5.710;2022-12-05T00:11:30;78.10;;;35.47;;
33022;SDS011;19390;51.460;5.710;2022-12-05T00:13:58;77.13;;;35.75;;
33022;SDS011;19390;51.460;5.710;2022-12-05T00:16:26;78.80;;;35.40;;
33022;SDS011;19390;51.460;5.710;2022-12-05T00:18:54;78.45;;;36.10;;
33022;SDS011;19390;51.460;5.710;2022-12-05T00:21:22;76.13;;;35.53;;
33022;SDS011;19390;51.460;5.710;2022-12-05T00:23:50;77.57;;;36.33;;
33022;SDS011;19390;51.460;5.710;2022-12-05T00:26:16;81.18;;;37.45;;
33022;SDS011;19390;51.460;5.710;2022-12-05T00:28:42;73.20;;;35.05;;
33022;SDS011;19390;51.460;5.710;2022-12-05T00:31:09;70.82;;;35.65;;
33022;SDS011;19390;51.460;5.710;2022-12-05T00:33:36;74.80;;;36.28;;
33022;SDS011;19390;51.460;5.710;2022-12-05T00:36:05;78.30;;;37.65;;
33022;SDS011;19390;51.460;5.710;2022-12-05T00:38:33;71.60;;;35.83;;
33022;SDS011;19390;51.460;5.710;2022-12-05T00:41:03;78.20;;;37.67;;
33022;SDS011;19390;51.460;5.710;2022-12-05T00:43:30;75.70;;;36.40;;
33022;SDS011;19390;51.460;5.710;2022-12-05T00:45:59;81.75;;;38.40;;
33022;SDS011;19390;51.460;5.710;2022-12-05T00:48:29;98.03;;;40.40;;
33022;SDS011;19390;51.460;5.710;2022-12-05T00:51:00;93.20;;;40.55;;
33022;SDS011;19390;51.460;5.710;2022-12-05T00:53:27;80.97;;;37.28;;
33022;SDS011;19390;51.460;5.710;2022-12-05T00:55:52;77.53;;;37.80;;
33022;SDS011;19390;51.460;5.710;2022-12-05T00:58:18;78.70;;;37.78;;
33022;SDS011;19390;51.460;5.710;2022-12-05T01:00:44;79.82;;;37.15;;
33022;SDS011;19390;51.460;5.710;2022-12-05T01:03:09;83.75;;;38.75;;
33022;SDS011;19390;51.460;5.710;2022-12-05T01:05:35;79.47;;;38.00;;
33022;SDS011;19390;51.460;5.710;2022-12-05T01:08:00;77.80;;;38.13;;
33022;SDS011;19390;51.460;5.710;2022-12-05T01:10:26;92.90;;;40.33;;
33022;SDS011;19390;51.460;5.710;2022-12-05T01:12:52;75.15;;;35.65;;
33022;SDS011;19390;51.460;5.710;2022-12-05T01:15:18;80.60;;;38.40;;
33022;SDS011;19390;51.460;5.710;2022-12-05T01:17:43;74.05;;;37.78;;
33022;SDS011;19390;51.460;5.710;2022-12-05T01:20:09;76.32;;;36.80;;
33022;SDS011;19390;51.460;5.710;2022-12-05T01:22:35;77.22;;;35.78;;
33022;SDS011;19390;51.460;5.710;2022-12-05T01:25:00;77.63;;;36.95;;
33022;SDS011;19390;51.460;5.710;2022-12-05T01:27:26;83.68;;;38.08;;
33022;SDS011;19390;51.460;5.710;2022-12-05T01:29:52;74.45;;;36.78;;
33022;SDS011;19390;51.460;5.710;2022-12-05T01:32:18;82.03;;;38.85;;
33022;SDS011;19390;51.460;5.710;2022-12-05T01:34:44;89.32;;;38.00;;
33022;SDS011;19390;51.460;5.710;2022-12-05T01:37:09;73.68;;;37.85;;
33022;SDS011;19390;51.460;5.710;2022-12-05T01:39:35;73.15;;;36.42;;
33022;SDS011;19390;51.460;5.710;2022-12-05T01:42:01;79.28;;;37.10;;
33022;SDS011;19390;51.460;5.710;2022-12-05T01:46:55;84.88;;;37.92;;
33022;SDS011;19390;51.460;5.710;2022-12-05T01:49:32;67.47;;;35.22;;
33022;SDS011;19390;51.460;5.710;2022-12-05T01:52:02;78.95;;;37.95;;
33022;SDS011;19390;51.460;5.710;2022-12-05T01:54:30;72.25;;;36.65;;
33022;SDS011;19390;51.460;5.710;2022-12-05T01:57:00;90.50;;;41.53;;
33022;SDS011;19390;51.460;5.710;2022-12-05T01:59:31;83.85;;;39.55;;
33022;SDS011;19390;51.460;5.710;2022-12-05T02:02:01;79.78;;;36.65;;
33022;SDS011;19390;51.460;5.710;2022-12-05T02:04:28;86.40;;;40.15;;
33022;SDS011;19390;51.460;5.710;2022-12-05T02:06:53;78.85;;;37.88;;
33022;SDS011;19390;51.460;5.710;2022-12-05T02:09:19;75.97;;;37.20;;
33022;SDS011;19390;51.460;5.710;2022-12-05T02:11:49;86.20;;;38.80;;
33022;SDS011;19390;51.460;5.710;2022-12-05T02:14:25;82.68;;;37.67;;
33022;SDS011;19390;51.460;5.710;2022-12-05T02:19:34;79.80;;;38.85;;
33022;SDS011;19390;51.460;5.710;2022-12-05T02:22:42;78.90;;;38.50;;
33022;SDS011;19390;51.460;5.710;2022-12-05T02:30:55;92.65;;;40.13;;
33022;SDS011;19390;51.460;5.710;2022-12-05T02:33:35;80.57;;;39.78;;
33022;SDS011;19390;51.460;5.710;2022-12-05T02:39:14;83.22;;;39.80;;
33022;SDS011;19390;51.460;5.710;2022-12-05T02:41:50;76.03;;;38.67;;
33022;SDS011;19390;51.460;5.710;2022-12-05T02:44:51;84.78;;;39.70;;
33022;SDS011;19390;51.460;5.710;2022-12-05T02:47:22;85.45;;;39.60;;
33022;SDS011;19390;51.460;5.710;2022-12-05T02:49:51;83.30;;;38.30;;
33022;SDS011;19390;51.460;5.710;2022-12-05T02:52:18;83.80;;;37.78;;
33022;SDS011;19390;51.460;5.710;2022-12-05T02:54:46;83.65;;;39.47;;
33022;SDS011;19390;51.460;5.710;2022-12-05T02:57:15;91.30;;;39.88;;
33022;SDS011;19390;51.460;5.710;2022-12-05T02:59:41;80.20;;;38.67;;
33022;SDS011;19390;51.460;5.710;2022-12-05T03:02:08;87.63;;;41.22;;
33022;SDS011;19390;51.460;5.710;2022-12-05T03:04:45;77.82;;;38.67;;
33022;SDS011;19390;51.460;5.710;2022-12-05T03:07:11;78.13;;;36.08;;
33022;SDS011;19390;51.460;5.710;2022-12-05T03:12:19;95.13;;;40.47;;
33022;SDS011;19390;51.460;5.710;2022-12-05T03:14:56;73.35;;;38.47;;
33022;SDS011;19390;51.460;5.710;2022-12-05T03:17:35;78.82;;;38.00;;
33022;SDS011;19390;51.460;5.710;2022-12-05T03:20:11;80.47;;;37.72;;
33022;SDS011;19390;51.460;5.710;2022-12-05T03:22:45;84.20;;;37.63;;
33022;SDS011;19390;51.460;5.710;2022-12-05T03:25:13;88.60;;;38.72;;
33022;SDS011;19390;51.460;5.710;2022-12-05T03:27:49;77.78;;;37.03;;
33022;SDS011;19390;51.460;5.710;2022-12-05T03:30:20;91.63;;;39.08;;
33022;SDS011;19390;51.460;5.710;2022-12-05T03:46:51;82.68;;;38.67;;
33022;SDS011;19390;51.460;5.710;2022-12-05T03:49:33;75.43;;;36.08;;
33022;SDS011;19390;51.460;5.710;2022-12-05T03:52:13;85.55;;;37.22;;
33022;SDS011;19390;51.460;5.710;2022-12-05T03:54:48;89.20;;;38.60;;
33022;SDS011;19390;51.460;5.710;2022-12-05T03:57:22;78.82;;;39.08;;
33022;SDS011;19390;51.460;5.710;2022-12-05T03:59:57;80.60;;;37.30;;
33022;SDS011;19390;51.460;5.710;2022-12-05T04:02:29;79.82;;;38.08;;
33022;SDS011;19390;51.460;5.710;2022-12-05T04:05:20;82.88;;;37.97;;
33022;SDS011;19390;51.460;5.710;2022-12-05T04:08:15;81.70;;;38.63;;
33022;SDS011;19390;51.460;5.710;2022-12-05T04:10:52;75.53;;;37.00;;
33022;SDS011;19390;51.460;5.710;2022-12-05T04:13:32;75.43;;;36.05;;
33022;SDS011;19390;51.460;5.710;2022-12-05T04:16:03;80.93;;;37.20;;
33022;SDS011;19390;51.460;5.710;2022-12-05T04:19:06;84.75;;;38.10;;
33022;SDS011;19390;51.460;5.710;2022-12-05T04:21:48;97.03;;;40.60;;
33022;SDS011;19390;51.460;5.710;2022-12-05T04:24:20;79.78;;;38.78;;
33022;SDS011;19390;51.460;5.710;2022-12-05T04:29:39;78.18;;;38.17;;
33022;SDS011;19390;51.460;5.710;2022-12-05T04:32:16;84.07;;;37.15;;
33022;SDS011;19390;51.460;5.710;2022-12-05T04:34:45;74.30;;;37.53;;
33022;SDS011;19390;51.460;5.710;2022-12-05T04:37:16;88.20;;;40.17;;
33022;SDS011;19390;51.460;5.710;2022-12-05T04:39:54;83.05;;;39.85;;
33022;SDS011;19390;51.460;5.710;2022-12-05T04:42:25;78.47;;;39.28;;
33022;SDS011;19390;51.460;5.710;2022-12-05T04:44:54;82.32;;;37.85;;
33022;SDS011;19390;51.460;5.710;2022-12-05T04:47:26;90.28;;;40.88;;
33022;SDS011;19390;51.460;5.710;2022-12-05T04:49:55;97.75;;;41.17;;
33022;SDS011;19390;51.460;5.710;2022-12-05T04:52:22;74.78;;;37.15;;
33022;SDS011;19390;51.460;5.710;2022-12-05T04:54:51;88.32;;;40.55;;
33022;SDS011;19390;51.460;5.710;2022-12-05T04:57:23;90.37;;;41.10;;
33022;SDS011;19390;51.460;5.710;2022-12-05T04:59:53;95.32;;;40.70;;
33022;SDS011;19390;51.460;5.710;2022-12-05T05:03:03;98.28;;;42.33;;
33022;SDS011;19390;51.460;5.710;2022-12-05T05:05:16;104.50;;;42.25;;
33022;SDS011;19390;51.460;5.710;2022-12-05T05:07:44;84.85;;;41.45;;
33022;SDS011;19390;51.460;5.710;2022-12-05T05:10:15;93.82;;;41.35;;
33022;SDS011;19390;51.460;5.710;2022-12-05T05:12:48;93.35;;;42.92;;
33022;SDS011;19390;51.460;5.710;2022-12-05T05:15:14;83.80;;;40.22;;
33022;SDS011;19390;51.460;5.710;2022-12-05T05:17:39;87.75;;;39.92;;
33022;SDS011;19390;51.460;5.710;2022-12-05T05:20:05;90.72;;;41.05;;
33022;SDS011;19390;51.460;5.710;2022-12-05T05:22:51;86.63;;;39.97;;
33022;SDS011;19390;51.460;5.710;2022-12-05T05:25:18;84.90;;;39.55;;
33022;SDS011;19390;51.460;5.710;2022-12-05T05:27:48;84.80;;;40.13;;
33022;SDS011;19390;51.460;5.710;2022-12-05T05:30:15;89.97;;;39.75;;
33022;SDS011;19390;51.460;5.710;2022-12-05T05:32:41;86.90;;;41.33;;
33022;SDS011;19390;51.460;5.710;2022-12-05T05:35:07;77.13;;;37.58;;
33022;SDS011;19390;51.460;5.710;2022-12-05T05:37:33;85.10;;;38.40;;
33022;SDS011;19390;51.460;5.710;2022-12-05T05:39:58;94.13;;;41.83;;
33022;SDS011;19390;51.460;5.710;2022-12-05T05:42:24;92.22;;;39.80;;
33022;SDS011;19390;51.460;5.710;2022-12-05T05:44:50;95.13;;;40.38;;
33022;SDS011;19390;51.460;5.710;2022-12-05T05:47:15;89.13;;;41.05;;
33022;SDS011;19390;51.460;5.710;2022-12-05T05:49:41;93.63;;;42.63;;
33022;SDS011;19390;51.460;5.710;2022-12-05T05:52:06;92.15;;;40.70;;
33022;SDS011;19390;51.460;5.710;2022-12-05T05:54:32;82.28;;;39.20;;
33022;SDS011;19390;51.460;5.710;2022-12-05T05:56:57;81.18;;;37.45;;
33022;SDS011;19390;51.460;5.710;2022-12-05T05:59:23;76.55;;;38.63;;
33022;SDS011;19390;51.460;5.710;2022-12-05T06:01:49;95.10;;;39.97;;
33022;SDS011;19390;51.460;5.710;2022-12-05T06:04:15;83.50;;;38.05;;
33022;SDS011;19390;51.460;5.710;2022-12-05T06:06:40;87.45;;;39.10;;
33022;SDS011;19390;51.460;5.710;2022-12-05T06:09:06;101.60;;;42.05;;
33022;SDS011;19390;51.460;5.710;2022-12-05T06:11:32;76.38;;;37.05;;
33022;SDS011;19390;51.460;5.710;2022-12-05T06:13:58;80.60;;;38.22;;
33022;SDS011;19390;51.460;5.710;2022-12-05T06:16:27;169.30;;;113.15;;
33022;SDS011;19390;51.460;5.710;2022-12-05T06:18:54;75.03;;;39.55;;
33022;SDS011;19390;51.460;5.710;2022-12-05T06:21:20;80.70;;;37.70;;
33022;SDS011;19390;51.460;5.710;2022-12-05T06:23:46;96.05;;;41.63;;
33022;SDS011;19390;51.460;5.710;2022-12-05T06:26:14;81.00;;;37.28;;
33022;SDS011;19390;51.460;5.710;2022-12-05T06:28:41;80.30;;;38.88;;
33022;SDS011;19390;51.460;5.710;2022-12-05T06:31:15;77.60;;;36.45;;
33022;SDS011;19390;51.460;5.710;2022-12-05T06:33:43;88.00;;;40.22;;
33022;SDS011;19390;51.460;5.710;2022-12-05T06:36:10;79.60;;;38.63;;
33022;SDS011;19390;51.460;5.710;2022-12-05T06:38:38;74.25;;;36.25;;
33022;SDS011;19390;51.460;5.710;2022-12-05T06:41:05;79.75;;;37.15;;
33022;SDS011;19390;51.460;5.710;2022-12-05T06:43:32;80.75;;;37.53;;
33022;SDS011;19390;51.460;5.710;2022-12-05T06:45:57;80.50;;;35.78;;
33022;SDS011;19390;51.460;5.710;2022-12-05T06:48:23;72.15;;;36.50;;
33022;SDS011;19390;51.460;5.710;2022-12-05T06:50:49;97.45;;;41.88;;
33022;SDS011;19390;51.460;5.710;2022-12-05T06:53:16;81.53;;;38.97;;
33022;SDS011;19390;51.460;5.710;2022-12-05T06:55:43;88.78;;;41.22;;
33022;SDS011;19390;51.460;5.710;2022-12-05T06:58:09;73.57;;;36.65;;
33022;SDS011;19390;51.460;5.710;2022-12-05T07:00:35;73.28;;;34.90;;
33022;SDS011;19390;51.460;5.710;2022-12-05T07:03:19;82.00;;;38.50;;
33022;SDS011;19390;51.460;5.710;2022-12-05T07:05:44;95.80;;;41.05;;
33022;SDS011;19390;51.460;5.710;2022-12-05T07:08:10;77.93;;;37.60;;
33022;SDS011;19390;51.460;5.710;2022-12-05T07:10:36;86.22;;;37.67;;
33022;SDS011;19390;51.460;5.710;2022-12-05T07:13:01;76.75;;;36.08;;
33022;SDS011;19390;51.460;5.710;2022-12-05T07:15:27;67.75;;;33.40;;
33022;SDS011;19390;51.460;5.710;2022-12-05T07:17:52;78.43;;;37.42;;
33022;SDS011;19390;51.460;5.710;2022-12-05T07:20:18;74.32;;;34.72;;
33022;SDS011;19390;51.460;5.710;2022-12-05T07:22:44;76.53;;;36.20;;
33022;SDS011;19390;51.460;5.710;2022-12-05T07:25:10;81.05;;;38.17;;
33022;SDS011;19390;51.460;5.710;2022-12-05T07:27:36;65.80;;;32.30;;
33022;SDS011;19390;51.460;5.710;2022-12-05T07:30:02;59.53;;;30.17;;
33022;SDS011;19390;51.460;5.710;2022-12-05T07:32:30;61.50;;;32.20;;
33022;SDS011;19390;51.460;5.710;2022-12-05T07:34:57;72.30;;;34.38;;
33022;SDS011;19390;51.460;5.710;2022-12-05T07:37:22;61.17;;;31.75;;
33022;SDS011;19390;51.460;5.710;2022-12-05T07:39:48;57.20;;;30.25;;
33022;SDS011;19390;51.460;5.710;2022-12-05T07:42:15;78.68;;;35.95;;
33022;SDS011;19390;51.460;5.710;2022-12-05T07:44:41;63.97;;;32.72;;
33022;SDS011;19390;51.460;5.710;2022-12-05T07:47:06;60.97;;;30.88;;
33022;SDS011;19390;51.460;5.710;2022-12-05T07:49:32;59.75;;;31.77;;
33022;SDS011;19390;51.460;5.710;2022-12-05T07:51:57;63.15;;;30.63;;
33022;SDS011;19390;51.460;5.710;2022-12-05T07:54:23;56.05;;;29.63;;
33022;SDS011;19390;51.460;5.710;2022-12-05T07:56:49;55.30;;;29.70;;
33022;SDS011;19390;51.460;5.710;2022-12-05T07:59:14;57.67;;;30.13;;
33022;SDS011;19390;51.460;5.710;2022-12-05T08:01:40;57.83;;;29.02;;
33022;SDS011;19390;51.460;5.710;2022-12-05T08:04:05;51.83;;;28.40;;
33022;SDS011;19390;51.460;5.710;2022-12-05T08:06:32;50.72;;;28.33;;
33022;SDS011;19390;51.460;5.710;2022-12-05T08:08:58;47.90;;;27.40;;
33022;SDS011;19390;51.460;5.710;2022-12-05T08:11:25;52.60;;;29.55;;
33022;SDS011;19390;51.460;5.710;2022-12-05T08:13:52;61.65;;;31.10;;
33022;SDS011;19390;51.460;5.710;2022-12-05T08:16:20;51.33;;;29.05;;
33022;SDS011;19390;51.460;5.710;2022-12-05T08:18:47;60.42;;;30.90;;
33022;SDS011;19390;51.460;5.710;2022-12-05T08:21:17;58.28;;;30.75;;
33022;SDS011;19390;51.460;5.710;2022-12-05T08:23:44;64.70;;;32.28;;
33022;SDS011;19390;51.460;5.710;2022-12-05T08:26:11;56.60;;;31.88;;
33022;SDS011;19390;51.460;5.710;2022-12-05T08:28:41;56.40;;;29.40;;
33022;SDS011;19390;51.460;5.710;2022-12-05T08:31:12;53.10;;;27.42;;
33022;SDS011;19390;51.460;5.710;2022-12-05T08:33:40;56.22;;;30.35;;
33022;SDS011;19390;51.460;5.710;2022-12-05T08:36:07;50.80;;;29.33;;
33022;SDS011;19390;51.460;5.710;2022-12-05T08:38:34;54.80;;;29.50;;
33022;SDS011;19390;51.460;5.710;2022-12-05T08:41:01;56.08;;;31.17;;
33022;SDS011;19390;51.460;5.710;2022-12-05T08:43:28;54.10;;;29.15;;
33022;SDS011;19390;51.460;5.710;2022-12-05T08:45:54;51.35;;;29.70;;
33022;SDS011;19390;51.460;5.710;2022-12-05T08:48:21;50.58;;;28.75;;
33022;SDS011;19390;51.460;5.710;2022-12-05T08:50:48;47.50;;;27.27;;
33022;SDS011;19390;51.460;5.710;2022-12-05T08:53:14;57.90;;;30.10;;
33022;SDS011;19390;51.460;5.710;2022-12-05T08:55:41;53.55;;;27.30;;
33022;SDS011;19390;51.460;5.710;2022-12-05T08:58:06;58.15;;;29.13;;
33022;SDS011;19390;51.460;5.710;2022-12-05T09:00:32;45.10;;;26.90;;
33022;SDS011;19390;51.460;5.710;2022-12-05T09:02:58;45.65;;;25.15;;
33022;SDS011;19390;51.460;5.710;2022-12-05T09:05:24;47.65;;;25.67;;
33022;SDS011;19390;51.460;5.710;2022-12-05T09:07:50;51.88;;;27.88;;
33022;SDS011;19390;51.460;5.710;2022-12-05T09:10:16;54.63;;;28.73;;
33022;SDS011;19390;51.460;5.710;2022-12-05T09:12:41;43.25;;;26.05;;
33022;SDS011;19390;51.460;5.710;2022-12-05T09:15:08;47.65;;;26.40;;
33022;SDS011;19390;51.460;5.710;2022-12-05T09:17:35;45.65;;;26.30;;
33022;SDS011;19390;51.460;5.710;2022-12-05T09:20:02;48.60;;;27.90;;
33022;SDS011;19390;51.460;5.710;2022-12-05T09:22:28;40.22;;;24.52;;
33022;SDS011;19390;51.460;5.710;2022-12-05T09:24:54;43.35;;;24.67;;
33022;SDS011;19390;51.460;5.710;2022-12-05T09:27:19;47.88;;;26.75;;
33022;SDS011;19390;51.460;5.710;2022-12-05T09:29:45;41.30;;;24.15;;
33022;SDS011;19390;51.460;5.710;2022-12-05T09:32:10;42.63;;;25.15;;
33022;SDS011;19390;51.460;5.710;2022-12-05T09:34:36;37.78;;;22.48;;
33022;SDS011;19390;51.460;5.710;2022-12-05T09:37:06;44.53;;;25.02;;
33022;SDS011;19390;51.460;5.710;2022-12-05T09:39:32;35.95;;;22.73;;
33022;SDS011;19390;51.460;5.710;2022-12-05T09:42:17;42.92;;;25.15;;
33022;SDS011;19390;51.460;5.710;2022-12-05T09:47:45;37.40;;;20.02;;
33022;SDS011;19390;51.460;5.710;2022-12-05T09:50:29;31.25;;;20.50;;
33022;SDS011;19390;51.460;5.710;2022-12-05T09:55:39;33.17;;;19.98;;
33022;SDS011;19390;51.460;5.710;2022-12-05T09:58:29;35.45;;;21.08;;
33022;SDS011;19390;51.460;5.710;2022-12-05T10:06:39;27.15;;;18.17;;
33022;SDS011;19390;51.460;5.710;2022-12-05T10:17:18;27.15;;;16.75;;
33022;SDS011;19390;51.460;5.710;2022-12-05T10:19:49;27.95;;;17.20;;
33022;SDS011;19390;51.460;5.710;2022-12-05T10:22:21;27.17;;;17.52;;
33022;SDS011;19390;51.460;5.710;2022-12-05T10:25:00;23.25;;;16.52;;
33022;SDS011;19390;51.460;5.710;2022-12-05T10:27:35;22.02;;;15.93;;
33022;SDS011;19390;51.460;5.710;2022-12-05T10:30:05;25.83;;;17.70;;
33022;SDS011;19390;51.460;5.710;2022-12-05T10:32:59;26.17;;;17.08;;
33022;SDS011;19390;51.460;5.710;2022-12-05T10:37:58;24.58;;;16.38;;
33022;SDS011;19390;51.460;5.710;2022-12-05T10:40:34;23.08;;;15.95;;
33022;SDS011;19390;51.460;5.710;2022-12-05T10:43:06;23.67;;;16.50;;
33022;SDS011;19390;51.460;5.710;2022-12-05T10:45:41;23.02;;;16.00;;
33022;SDS011;19390;51.460;5.710;2022-12-05T10:48:13;21.67;;;15.73;;
33022;SDS011;19390;51.460;5.710;2022-12-05T10:50:41;26.20;;;17.50;;
33022;SDS011;19390;51.460;5.710;2022-12-05T10:53:10;22.08;;;16.63;;
33022;SDS011;19390;51.460;5.710;2022-12-05T10:55:40;22.33;;;16.63;;
33022;SDS011;19390;51.460;5.710;2022-12-05T10:58:10;28.08;;;20.05;;
33022;SDS011;19390;51.460;5.710;2022-12-05T11:00:38;22.65;;;16.42;;
33022;SDS011;19390;51.460;5.710;2022-12-05T11:03:27;24.67;;;17.27;;
33022;SDS011;19390;51.460;5.710;2022-12-05T11:05:56;23.08;;;15.25;;
33022;SDS011;19390;51.460;5.710;2022-12-05T11:08:27;20.38;;;15.32;;
33022;SDS011;19390;51.460;5.710;2022-12-05T11:11:05;20.95;;;14.93;;
33022;SDS011;19390;51.460;5.710;2022-12-05T11:13:50;25.85;;;15.85;;
33022;SDS011;19390;51.460;5.710;2022-12-05T11:16:22;27.15;;;17.60;;
33022;SDS011;19390;51.460;5.710;2022-12-05T11:18:50;26.08;;;17.73;;
33022;SDS011;19390;51.460;5.710;2022-12-05T11:21:17;19.25;;;14.05;;
33022;SDS011;19390;51.460;5.710;2022-12-05T11:23:44;21.38;;;15.43;;
33022;SDS011;19390;51.460;5.710;2022-12-05T11:26:32;23.38;;;16.30;;
33022;SDS011;19390;51.460;5.710;2022-12-05T11:29:00;16.77;;;13.00;;
33022;SDS011;19390;51.460;5.710;2022-12-05T11:31:28;17.67;;;13.43;;
33022;SDS011;19390;51.460;5.710;2022-12-05T11:34:00;19.55;;;14.77;;
33022;SDS011;19390;51.460;5.710;2022-12-05T11:36:31;18.05;;;12.90;;
33022;SDS011;19390;51.460;5.710;2022-12-05T11:39:03;19.73;;;12.48;;
33022;SDS011;19390;51.460;5.710;2022-12-05T11:44:41;14.65;;;11.88;;
33022;SDS011;19390;51.460;5.710;2022-12-05T11:55:19;14.68;;;11.20;;
33022;SDS011;19390;51.460;5.710;2022-12-05T12:06:26;17.30;;;12.93;;
33022;SDS011;19390;51.460;5.710;2022-12-05T12:12:12;15.25;;;11.32;;
33022;SDS011;19390;51.460;5.710;2022-12-05T12:14:56;17.70;;;11.82;;
33022;SDS011;19390;51.460;5.710;2022-12-05T12:17:30;15.25;;;10.52;;
33022;SDS011;19390;51.460;5.710;2022-12-05T12:23:12;17.73;;;12.00;;
33022;SDS011;19390;51.460;5.710;2022-12-05T12:43:50;14.88;;;11.02;;
33022;SDS011;19390;51.460;5.710;2022-12-05T12:47:00;17.70;;;12.13;;
33022;SDS011;19390;51.460;5.710;2022-12-05T12:49:41;15.10;;;12.32;;
33022;SDS011;19390;51.460;5.710;2022-12-05T12:52:17;17.98;;;12.02;;
33022;SDS011;19390;51.460;5.710;2022-12-05T13:02:42;16.70;;;13.25;;
33022;SDS011;19390;51.460;5.710;2022-12-05T13:10:52;17.50;;;13.13;;
33022;SDS011;19390;51.460;5.710;2022-12-05T13:13:22;16.30;;;12.55;;
33022;SDS011;19390;51.460;5.710;2022-12-05T13:15:53;17.75;;;12.40;;
33022;SDS011;19390;51.460;5.710;2022-12-05T13:18:22;16.17;;;11.25;;
33022;SDS011;19390;51.460;5.710;2022-12-05T13:20:57;12.60;;;10.15;;
33022;SDS011;19390;51.460;5.710;2022-12-05T13:23:25;13.82;;;10.45;;
33022;SDS011;19390;51.460;5.710;2022-12-05T13:25:56;14.68;;;10.65;;
33022;SDS011;19390;51.460;5.710;2022-12-05T13:28:34;13.07;;;10.00;;
33022;SDS011;19390;51.460;5.710;2022-12-05T13:31:06;14.57;;;9.98;;
33022;SDS011;19390;51.460;5.710;2022-12-05T13:33:42;14.70;;;10.82;;
33022;SDS011;19390;51.460;5.710;2022-12-05T13:36:11;11.00;;;8.77;;
33022;SDS011;19390;51.460;5.710;2022-12-05T13:38:59;10.00;;;8.18;;
33022;SDS011;19390;51.460;5.710;2022-12-05T13:41:52;12.27;;;9.25;;
33022;SDS011;19390;51.460;5.710;2022-12-05T13:44:40;13.25;;;9.25;;
33022;SDS011;19390;51.460;5.710;2022-12-05T13:47:46;11.45;;;8.93;;
33022;SDS011;19390;51.460;5.710;2022-12-05T13:50:17;11.23;;;8.98;;
33022;SDS011;19390;51.460;5.710;2022-12-05T13:52:58;12.80;;;8.65;;
33022;SDS011;19390;51.460;5.710;2022-12-05T13:57:58;16.80;;;10.10;;
33022;SDS011;19390;51.460;5.710;2022-12-05T14:00:26;12.77;;;10.18;;
33022;SDS011;19390;51.460;5.710;2022-12-05T14:03:02;12.07;;;9.57;;
33022;SDS011;19390;51.460;5.710;2022-12-05T14:15:48;13.73;;;10.27;;
33022;SDS011;19390;51.460;5.710;2022-12-05T14:21:03;14.32;;;10.80;;
33022;SDS011;19390;51.460;5.710;2022-12-05T14:29:31;13.80;;;10.55;;
33022;SDS011;19390;51.460;5.710;2022-12-05T14:40:31;16.58;;;12.48;;
33022;SDS011;19390;51.460;5.710;2022-12-05T14:50:42;16.65;;;12.45;;
33022;SDS011;19390;51.460;5.710;2022-12-05T14:58:36;19.20;;;14.00;;
33022;SDS011;19390;51.460;5.710;2022-12-05T15:01:12;20.23;;;14.63;;
33022;SDS011;19390;51.460;5.710;2022-12-05T15:04:27;20.33;;;14.75;;
33022;SDS011;19390;51.460;5.710;2022-12-05T15:06:43;17.52;;;13.73;;
33022;SDS011;19390;51.460;5.710;2022-12-05T15:12:19;20.10;;;14.10;;
33022;SDS011;19390;51.460;5.710;2022-12-05T15:15:20;18.60;;;14.27;;
33022;SDS011;19390;51.460;5.710;2022-12-05T15:17:59;19.10;;;14.93;;
33022;SDS011;19390;51.460;5.710;2022-12-05T15:20:54;20.92;;;14.68;;
33022;SDS011;19390;51.460;5.710;2022-12-05T15:26:26;22.90;;;16.05;;
33022;SDS011;19390;51.460;5.710;2022-12-05T15:29:14;24.50;;;16.45;;
33022;SDS011;19390;51.460;5.710;2022-12-05T15:31:45;27.20;;;18.60;;
33022;SDS011;19390;51.460;5.710;2022-12-05T15:36:44;26.20;;;18.02;;
33022;SDS011;19390;51.460;5.710;2022-12-05T15:39:21;30.02;;;19.52;;
33022;SDS011;19390;51.460;5.710;2022-12-05T15:41:52;33.50;;;22.05;;
33022;SDS011;19390;51.460;5.710;2022-12-05T15:44:19;30.77;;;20.45;;
33022;SDS011;19390;51.460;5.710;2022-12-05T15:46:52;30.67;;;17.85;;
33022;SDS011;19390;51.460;5.710;2022-12-05T15:49:23;45.92;;;22.98;;
33022;SDS011;19390;51.460;5.710;2022-12-05T15:51:55;46.42;;;24.67;;
33022;SDS011;19390;51.460;5.710;2022-12-05T15:54:31;33.72;;;21.90;;
33022;SDS011;19390;51.460;5.710;2022-12-05T15:57:11;60.65;;;27.75;;
33022;SDS011;19390;51.460;5.710;2022-12-05T15:59:46;43.75;;;27.63;;
33022;SDS011;19390;51.460;5.710;2022-12-05T16:02:31;39.28;;;26.20;;
33022;SDS011;19390;51.460;5.710;2022-12-05T16:05:00;33.00;;;22.10;;
33022;SDS011;19390;51.460;5.710;2022-12-05T16:07:27;586.47;;;91.80;;
33022;SDS011;19390;51.460;5.710;2022-12-05T16:09:55;39.05;;;23.67;;
33022;SDS011;19390;51.460;5.710;2022-12-05T16:15:01;30.45;;;20.20;;
33022;SDS011;19390;51.460;5.710;2022-12-05T16:17:36;30.23;;;20.00;;
33022;SDS011;19390;51.460;5.710;2022-12-05T16:20:10;36.08;;;22.42;;
33022;SDS011;19390;51.460;5.710;2022-12-05T16:23:04;31.48;;;20.80;;
33022;SDS011;19390;51.460;5.710;2022-12-05T16:25:31;42.95;;;27.60;;
33022;SDS011;19390;51.460;5.710;2022-12-05T16:30:37;40.22;;;31.10;;
33022;SDS011;19390;51.460;5.710;2022-12-05T16:33:04;32.22;;;21.10;;
33022;SDS011;19390;51.460;5.710;2022-12-05T16:38:11;32.15;;;21.98;;
33022;SDS011;19390;51.460;5.710;2022-12-05T16:48:35;30.75;;;20.20;;
33022;SDS011;19390;51.460;5.710;2022-12-05T16:53:42;31.02;;;19.77;;
33022;SDS011;19390;51.460;5.710;2022-12-05T16:56:30;28.25;;;18.85;;
33022;SDS011;19390;51.460;5.710;2022-12-05T16:58:57;37.60;;;21.17;;
33022;SDS011;19390;51.460;5.710;2022-12-05T17:01:27;31.15;;;19.42;;
33022;SDS011;19390;51.460;5.710;2022-12-05T17:03:53;26.60;;;19.27;;
33022;SDS011;19390;51.460;5.710;2022-12-05T17:06:19;36.50;;;22.10;;
33022;SDS011;19390;51.460;5.710;2022-12-05T17:08:47;32.08;;;20.42;;
33022;SDS011;19390;51.460;5.710;2022-12-05T17:11:22;35.95;;;21.60;;
33022;SDS011;19390;51.460;5.710;2022-12-05T17:13:51;31.77;;;19.48;;
33022;SDS011;19390;51.460;5.710;2022-12-05T17:16:17;27.83;;;19.88;;
33022;SDS011;19390;51.460;5.710;2022-12-05T17:18:44;30.20;;;19.48;;
33022;SDS011;19390;51.460;5.710;2022-12-05T17:21:14;30.02;;;19.90;;
33022;SDS011;19390;51.460;5.710;2022-12-05T17:23:41;29.10;;;18.60;;
33022;SDS011;19390;51.460;5.710;2022-12-05T17:26:07;29.15;;;19.45;;
33022;SDS011;19390;51.460;5.710;2022-12-05T17:28:37;32.90;;;21.95;;
33022;SDS011;19390;51.460;5.710;2022-12-05T17:31:03;32.08;;;20.40;;
33022;SDS011;19390;51.460;5.710;2022-12-05T17:33:29;32.70;;;21.40;;
33022;SDS011;19390;51.460;5.710;2022-12-05T17:35:55;29.77;;;19.35;;
33022;SDS011;19390;51.460;5.710;2022-12-05T17:38:20;29.77;;;20.45;;
33022;SDS011;19390;51.460;5.710;2022-12-05T17:40:46;25.05;;;17.58;;
33022;SDS011;19390;51.460;5.710;2022-12-05T17:43:12;29.52;;;20.13;;
33022;SDS011;19390;51.460;5.710;2022-12-05T17:45:39;34.25;;;21.23;;